sensor_id;sensor_type;location;lat;lon;timestamp;P1;P2;P0
29460;PMS7003;16428;47.836;35.106;2022-12-20T00:02:16;32.33;31.00;21.00
29460;PMS7003;16428;47.836;35.106;2022-12-20T00:04:45;35.33;32.00;23.00
29460;PMS7003;16428;47.836;35.106;2022-12-20T00:07:18;32.33;31.33;20.00
29460;PMS7003;16428;47.836;35.106;2022-12-20T00:09:47;31.00;28.33;21.33
29460;PMS7003;16428;47.836;35.106;2022-12-20T00:12:16;38.67;33.67;23.33
29460;PMS7003;16428;47.836;35.106;2022-12-20T00:14:46;43.00;31.33;22.00
29460;PMS7003;16428;47.836;35.106;2022-12-20T00:17:15;35.33;32.00;22.00
29460;PMS7003;16428;47.836;35.106;2022-12-20T00:19:43;33.00;31.33;22.33
29460;PMS7003;16428;47.836;35.106;2022-12-20T00:22:11;39.33;34.33;23.00
29460;PMS7003;16428;47.836;35.106;2022-12-20T00:24:39;31.33;29.00;19.33
29460;PMS7003;16428;47.836;35.106;2022-12-20T00:27:08;30.67;29.67;21.67
29460;PMS7003;16428;47.836;35.106;2022-12-20T00:29:36;34.33;31.00;21.33
29460;PMS7003;16428;47.836;35.106;2022-12-20T00:32:05;38.67;35.33;23.00
29460;PMS7003;16428;47.836;35.106;2022-12-20T00:34:33;29.33;29.33;21.33
29460;PMS7003;16428;47.836;35.106;2022-12-20T00:37:01;37.67;32.67;22.00
29460;PMS7003;16428;47.836;35.106;2022-12-20T00:39:29;32.00;25.67;22.00
29460;PMS7003;16428;47.836;35.106;2022-12-20T00:42:01;32.00;29.67;22.33
29460;PMS7003;16428;47.836;35.106;2022-12-20T00:44:29;33.67;31.67;21.67
29460;PMS7003;16428;47.836;35.106;2022-12-20T00:46:59;32.00;28.67;21.33
29460;PMS7003;16428;47.836;35.106;2022-12-20T00:49:29;27.00;24.67;19.67
29460;PMS7003;16428;47.836;35.106;2022-12-20T00:51:57;37.00;33.00;23.33
29460;PMS7003;16428;47.836;35.106;2022-12-20T00:54:26;42.33;33.00;21.33
29460;PMS7003;16428;47.836;35.106;2022-12-20T00:56:54;39.33;32.33;23.33
29460;PMS7003;16428;47.836;35.106;2022-12-20T00:59:22;34.67;29.33;21.67
29460;PMS7003;16428;47.836;35.106;2022-12-20T01:01:51;29.67;29.33;21.00
29460;PMS7003;16428;47.836;35.106;2022-12-20T01:04:22;36.33;32.00;22.33
29460;PMS7003;16428;47.836;35.106;2022-12-20T01:06:53;31.67;28.00;21.67
29460;PMS7003;16428;47.836;35.106;2022-12-20T01:09:23;35.00;32.33;22.33
29460;PMS7003;16428;47.836;35.106;2022-12-20T01:11:52;33.00;30.00;22.00
29460;PMS7003;16428;47.836;35.106;2022-12-20T01:14:20;29.67;29.00;21.33
29460;PMS7003;16428;47.836;35.106;2022-12-20T01:16:52;41.33;31.00;22.67
29460;PMS7003;16428;47.836;35.106;2022-12-20T01:19:21;40.33;32.67;22.00
29460;PMS7003;16428;47.836;35.106;2022-12-20T01:21:49;36.67;30.00;21.00
29460;PMS7003;16428;47.836;35.106;2022-12-20T01:24:18;43.00;34.00;23.67
29460;PMS7003;16428;47.836;35.106;2022-12-20T01:26:47;31.67;28.33;20.00
29460;PMS7003;16428;47.836;35.106;2022-12-20T01:29:17;41.00;35.00;23.67
29460;PMS7003;16428;47.836;35.106;2022-12-20T01:31:46;30.67;26.33;19.00
29460;PMS7003;16428;47.836;35.106;2022-12-20T01:34:15;31.67;29.00;21.00
29460;PMS7003;16428;47.836;35.106;2022-12-20T01:36:45;36.67;32.67;23.00
29460;PMS7003;16428;47.836;35.106;2022-12-20T01:39:15;37.67;32.00;22.00
29460;PMS7003;16428;47.836;35.106;2022-12-20T01:41:44;37.33;33.33;23.00
29460;PMS7003;16428;47.836;35.106;2022-12-20T01:46:48;31.67;30.00;21.33
29460;PMS7003;16428;47.836;35.106;2022-12-20T01:49:42;41.67;34.33;22.33
29460;PMS7003;16428;47.836;35.106;2022-12-20T01:52:15;37.67;33.00;23.00
29460;PMS7003;16428;47.836;35.106;2022-12-20T01:54:59;34.33;32.33;21.67
29460;PMS7003;16428;47.836;35.106;2022-12-20T01:57:35;39.67;33.00;21.67
29460;PMS7003;16428;47.836;35.106;2022-12-20T02:00:15;41.67;35.67;24.00
29460;PMS7003;16428;47.836;35.106;2022-12-20T02:02:50;42.00;34.67;24.67
29460;PMS7003;16428;47.836;35.106;2022-12-20T02:05:20;37.33;31.00;21.67
29460;PMS7003;16428;47.836;35.106;2022-12-20T02:07:52;42.33;36.67;24.67
29460;PMS7003;16428;47.836;35.106;2022-12-20T02:10:25;41.00;34.00;22.67
29460;PMS7003;16428;47.836;35.106;2022-12-20T02:13:07;44.00;34.33;23.00
29460;PMS7003;16428;47.836;35.106;2022-12-20T02:15:56;41.67;37.00;23.33
29460;PMS7003;16428;47.836;35.106;2022-12-20T02:21:54;46.00;35.00;24.67
29460;PMS7003;16428;47.836;35.106;2022-12-20T02:24:55;39.67;35.00;23.00
29460;PMS7003;16428;47.836;35.106;2022-12-20T02:30:44;49.67;35.33;24.67
29460;PMS7003;16428;47.836;35.106;2022-12-20T02:33:22;50.33;40.00;27.67
29460;PMS7003;16428;47.836;35.106;2022-12-20T02:35:54;45.67;36.67;24.00
29460;PMS7003;16428;47.836;35.106;2022-12-20T02:38:24;44.67;37.33;23.00
29460;PMS7003;16428;47.836;35.106;2022-12-20T02:41:11;41.67;35.00;23.67
29460;PMS7003;16428;47.836;35.106;2022-12-20T02:43:44;45.67;38.67;25.33
29460;PMS7003;16428;47.836;35.106;2022-12-20T02:46:43;46.67;38.67;26.00
29460;PMS7003;16428;47.836;35.106;2022-12-20T02:49:17;40.67;36.33;24.00
29460;PMS7003;16428;47.836;35.106;2022-12-20T02:51:50;43.33;37.67;26.00
29460;PMS7003;16428;47.836;35.106;2022-12-20T02:54:24;43.67;38.67;27.00
29460;PMS7003;16428;47.836;35.106;2022-12-20T02:56:55;48.33;38.00;26.00
29460;PMS7003;16428;47.836;35.106;2022-12-20T02:59:31;49.67;36.33;24.33
29460;PMS7003;16428;47.836;35.106;2022-12-20T03:02:12;49.67;42.00;29.00
29460;PMS7003;16428;47.836;35.106;2022-12-20T03:04:41;46.67;37.00;24.33
29460;PMS7003;16428;47.836;35.106;2022-12-20T03:07:13;48.67;40.33;26.67
29460;PMS7003;16428;47.836;35.106;2022-12-20T03:09:44;51.75;41.50;26.75
29460;PMS7003;16428;47.836;35.106;2022-12-20T03:12:12;46.67;38.67;25.67
29460;PMS7003;16428;47.836;35.106;2022-12-20T03:14:43;52.50;43.25;28.50
29460;PMS7003;16428;47.836;35.106;2022-12-20T03:17:11;49.00;39.00;25.00
29460;PMS7003;16428;47.836;35.106;2022-12-20T03:19:40;48.00;41.00;27.50
29460;PMS7003;16428;47.836;35.106;2022-12-20T03:22:09;49.00;40.00;26.67
29460;PMS7003;16428;47.836;35.106;2022-12-20T03:24:38;46.33;37.67;26.00
29460;PMS7003;16428;47.836;35.106;2022-12-20T03:27:06;48.33;39.33;27.00
29460;PMS7003;16428;47.836;35.106;2022-12-20T03:29:37;51.00;41.00;26.67
29460;PMS7003;16428;47.836;35.106;2022-12-20T03:32:05;38.33;33.33;23.00
29460;PMS7003;16428;47.836;35.106;2022-12-20T03:34:34;42.33;37.00;24.33
29460;PMS7003;16428;47.836;35.106;2022-12-20T03:37:03;48.00;40.50;26.75
29460;PMS7003;16428;47.836;35.106;2022-12-20T03:39:35;44.67;37.67;24.00
29460;PMS7003;16428;47.836;35.106;2022-12-20T03:42:05;48.67;40.00;27.33
29460;PMS7003;16428;47.836;35.106;2022-12-20T03:44:37;45.33;39.33;26.00
29460;PMS7003;16428;47.836;35.106;2022-12-20T03:47:05;59.33;46.00;29.67
29460;PMS7003;16428;47.836;35.106;2022-12-20T03:49:35;51.25;41.00;26.00
29460;PMS7003;16428;47.836;35.106;2022-12-20T03:52:04;48.00;41.50;27.00
29460;PMS7003;16428;47.836;35.106;2022-12-20T03:54:34;53.00;42.00;28.00
29460;PMS7003;16428;47.836;35.106;2022-12-20T03:57:01;30.00;26.67;18.33
29460;PMS7003;16428;47.836;35.106;2022-12-20T03:59:29;48.67;39.33;27.00
29460;PMS7003;16428;47.836;35.106;2022-12-20T04:01:58;55.00;43.67;28.33
29460;PMS7003;16428;47.836;35.106;2022-12-20T04:04:30;51.50;41.00;27.75
29460;PMS7003;16428;47.836;35.106;2022-12-20T04:07:01;52.67;44.33;29.67
29460;PMS7003;16428;47.836;35.106;2022-12-20T04:09:30;50.33;40.00;26.00
29460;PMS7003;16428;47.836;35.106;2022-12-20T04:11:59;50.50;42.50;27.50
29460;PMS7003;16428;47.836;35.106;2022-12-20T04:14:29;62.50;51.00;34.25
29460;PMS7003;16428;47.836;35.106;2022-12-20T04:16:58;55.67;42.33;26.33
29460;PMS7003;16428;47.836;35.106;2022-12-20T04:19:28;51.50;42.75;29.50
29460;PMS7003;16428;47.836;35.106;2022-12-20T04:21:56;49.75;40.00;28.00
29460;PMS7003;16428;47.836;35.106;2022-12-20T04:24:34;54.33;44.67;28.00
29460;PMS7003;16428;47.836;35.106;2022-12-20T04:27:02;51.67;41.00;25.67
29460;PMS7003;16428;47.836;35.106;2022-12-20T04:29:31;47.00;39.67;27.00
29460;PMS7003;16428;47.836;35.106;2022-12-20T04:32:02;53.00;43.67;28.00
29460;PMS7003;16428;47.836;35.106;2022-12-20T04:34:30;50.25;42.25;27.25
29460;PMS7003;16428;47.836;35.106;2022-12-20T04:36:59;52.75;42.75;28.00
29460;PMS7003;16428;47.836;35.106;2022-12-20T04:39:28;51.00;41.75;27.50
29460;PMS7003;16428;47.836;35.106;2022-12-20T04:41:59;61.75;46.00;28.50
29460;PMS7003;16428;47.836;35.106;2022-12-20T04:44:31;60.75;46.75;30.00
29460;PMS7003;16428;47.836;35.106;2022-12-20T04:47:01;55.75;45.50;30.00
29460;PMS7003;16428;47.836;35.106;2022-12-20T04:49:32;50.00;41.67;27.00
29460;PMS7003;16428;47.836;35.106;2022-12-20T04:52:02;48.67;40.67;27.33
29460;PMS7003;16428;47.836;35.106;2022-12-20T04:54:49;53.00;40.33;25.67
29460;PMS7003;16428;47.836;35.106;2022-12-20T04:57:17;45.75;36.50;23.00
29460;PMS7003;16428;47.836;35.106;2022-12-20T04:59:46;53.67;42.33;29.00
29460;PMS7003;16428;47.836;35.106;2022-12-20T05:02:16;55.75;44.00;28.75
29460;PMS7003;16428;47.836;35.106;2022-12-20T05:04:45;48.00;39.00;26.75
29460;PMS7003;16428;47.836;35.106;2022-12-20T05:07:13;45.50;37.25;27.50
29460;PMS7003;16428;47.836;35.106;2022-12-20T05:09:44;42.67;34.67;24.00
29460;PMS7003;16428;47.836;35.106;2022-12-20T05:12:12;47.75;37.75;24.50
29460;PMS7003;16428;47.836;35.106;2022-12-20T05:14:42;48.33;42.00;26.67
29460;PMS7003;16428;47.836;35.106;2022-12-20T05:17:11;43.33;36.67;25.33
29460;PMS7003;16428;47.836;35.106;2022-12-20T05:19:39;46.67;37.00;24.33
29460;PMS7003;16428;47.836;35.106;2022-12-20T05:22:08;46.00;36.00;21.67
29460;PMS7003;16428;47.836;35.106;2022-12-20T05:24:57;48.33;39.00;26.00
29460;PMS7003;16428;47.836;35.106;2022-12-20T05:27:45;57.00;45.75;31.75
29460;PMS7003;16428;47.836;35.106;2022-12-20T05:30:14;45.75;39.25;25.00
29460;PMS7003;16428;47.836;35.106;2022-12-20T05:32:42;47.00;38.33;25.67
29460;PMS7003;16428;47.836;35.106;2022-12-20T05:35:13;44.00;37.00;23.67
29460;PMS7003;16428;47.836;35.106;2022-12-20T05:37:42;50.50;37.50;24.75
29460;PMS7003;16428;47.836;35.106;2022-12-20T05:40:10;50.33;41.33;25.67
29460;PMS7003;16428;47.836;35.106;2022-12-20T05:42:38;48.00;41.25;26.75
29460;PMS7003;16428;47.836;35.106;2022-12-20T05:45:11;54.25;40.00;27.00
29460;PMS7003;16428;47.836;35.106;2022-12-20T05:47:40;50.75;41.00;28.00
29460;PMS7003;16428;47.836;35.106;2022-12-20T05:50:09;52.50;40.75;27.00
29460;PMS7003;16428;47.836;35.106;2022-12-20T05:52:46;48.00;38.25;24.75
29460;PMS7003;16428;47.836;35.106;2022-12-20T05:55:23;44.00;35.25;24.25
29460;PMS7003;16428;47.836;35.106;2022-12-20T05:57:53;49.25;40.25;28.00
29460;PMS7003;16428;47.836;35.106;2022-12-20T06:00:21;49.50;39.75;26.00
29460;PMS7003;16428;47.836;35.106;2022-12-20T06:02:50;42.00;36.00;24.67
29460;PMS7003;16428;47.836;35.106;2022-12-20T06:05:19;44.00;35.33;23.33
29460;PMS7003;16428;47.836;35.106;2022-12-20T06:07:49;46.67;37.67;27.00
29460;PMS7003;16428;47.836;35.106;2022-12-20T06:10:18;48.50;39.75;26.25
29460;PMS7003;16428;47.836;35.106;2022-12-20T06:12:47;47.50;39.50;27.25
29460;PMS7003;16428;47.836;35.106;2022-12-20T06:15:19;50.50;40.25;26.25
29460;PMS7003;16428;47.836;35.106;2022-12-20T06:17:47;54.50;43.00;28.75
29460;PMS7003;16428;47.836;35.106;2022-12-20T06:20:18;50.75;40.00;26.00
29460;PMS7003;16428;47.836;35.106;2022-12-20T06:22:46;46.00;39.67;25.67
29460;PMS7003;16428;47.836;35.106;2022-12-20T06:25:14;47.00;37.33;25.67
29460;PMS7003;16428;47.836;35.106;2022-12-20T06:27:43;52.00;40.50;26.75
29460;PMS7003;16428;47.836;35.106;2022-12-20T06:30:13;49.00;39.25;25.75
29460;PMS7003;16428;47.836;35.106;2022-12-20T06:32:42;52.50;41.50;27.25
29460;PMS7003;16428;47.836;35.106;2022-12-20T06:35:12;53.25;42.75;29.25
29460;PMS7003;16428;47.836;35.106;2022-12-20T06:37:41;57.00;45.00;28.25
29460;PMS7003;16428;47.836;35.106;2022-12-20T06:40:11;55.00;43.25;28.75
29460;PMS7003;16428;47.836;35.106;2022-12-20T06:42:46;61.25;47.00;29.00
29460;PMS7003;16428;47.836;35.106;2022-12-20T06:45:15;54.00;45.67;29.67
29460;PMS7003;16428;47.836;35.106;2022-12-20T06:47:46;88.75;77.75;53.00
29460;PMS7003;16428;47.836;35.106;2022-12-20T06:50:15;99.25;83.50;51.75
29460;PMS7003;16428;47.836;35.106;2022-12-20T06:52:44;60.75;50.50;34.75
29460;PMS7003;16428;47.836;35.106;2022-12-20T06:55:13;63.75;49.00;34.00
29460;PMS7003;16428;47.836;35.106;2022-12-20T06:57:42;69.75;53.50;33.50
29460;PMS7003;16428;47.836;35.106;2022-12-20T07:00:15;67.00;54.75;34.00
29460;PMS7003;16428;47.836;35.106;2022-12-20T07:02:44;71.50;57.25;37.00
29460;PMS7003;16428;47.836;35.106;2022-12-20T07:05:12;71.00;60.00;36.25
29460;PMS7003;16428;47.836;35.106;2022-12-20T10:31:15;76.00;55.00;33.33
29460;PMS7003;16428;47.836;35.106;2022-12-20T10:33:45;75.33;61.00;39.00
29460;PMS7003;16428;47.836;35.106;2022-12-20T10:39:01;76.00;60.67;37.00
29460;PMS7003;16428;47.836;35.106;2022-12-20T10:44:17;77.00;59.67;35.33
29460;PMS7003;16428;47.836;35.106;2022-12-20T10:47:00;87.67;66.67;43.33
29460;PMS7003;16428;47.836;35.106;2022-12-20T10:49:33;88.00;67.67;46.67
29460;PMS7003;16428;47.836;35.106;2022-12-20T10:54:44;88.67;67.00;45.33
29460;PMS7003;16428;47.836;35.106;2022-12-20T10:57:20;95.33;71.33;46.33
29460;PMS7003;16428;47.836;35.106;2022-12-20T10:59:58;88.00;67.00;45.00
29460;PMS7003;16428;47.836;35.106;2022-12-20T11:02:46;88.33;69.00;44.00
29460;PMS7003;16428;47.836;35.106;2022-12-20T11:05:51;96.00;81.00;51.67
29460;PMS7003;16428;47.836;35.106;2022-12-20T11:09:13;90.67;76.00;46.00
29460;PMS7003;16428;47.836;35.106;2022-12-20T11:12:17;95.33;75.33;50.67
29460;PMS7003;16428;47.836;35.106;2022-12-20T11:14:46;107.33;90.67;54.33
29460;PMS7003;16428;47.836;35.106;2022-12-20T11:21:02;112.67;82.33;51.00
29460;PMS7003;16428;47.836;35.106;2022-12-20T11:40:02;80.00;63.67;40.33
29460;PMS7003;16428;47.836;35.106;2022-12-20T11:43:21;61.75;48.50;31.50
29460;PMS7003;16428;47.836;35.106;2022-12-20T11:56:34;77.67;60.67;38.33
29460;PMS7003;16428;47.836;35.106;2022-12-20T11:59:59;56.25;47.25;30.00
29460;PMS7003;16428;47.836;35.106;2022-12-20T12:06:45;68.00;49.75;31.75
29460;PMS7003;16428;47.836;35.106;2022-12-20T12:10:52;65.25;50.25;32.50
29460;PMS7003;16428;47.836;35.106;2022-12-20T12:14:14;58.75;48.75;31.75
29460;PMS7003;16428;47.836;35.106;2022-12-20T12:17:30;60.75;47.25;32.75
29460;PMS7003;16428;47.836;35.106;2022-12-20T12:30:15;25.00;23.00;17.25
29460;PMS7003;16428;47.836;35.106;2022-12-20T12:32:52;32.00;28.50;18.25
29460;PMS7003;16428;47.836;35.106;2022-12-20T12:42:04;32.00;29.25;20.50
29460;PMS7003;16428;47.836;35.106;2022-12-20T12:45:01;37.75;32.75;21.75
29460;PMS7003;16428;47.836;35.106;2022-12-20T12:51:05;40.75;29.00;22.25
29460;PMS7003;16428;47.836;35.106;2022-12-20T13:02:47;23.75;23.75;19.00
29460;PMS7003;16428;47.836;35.106;2022-12-20T13:07:43;31.50;24.00;12.50
29460;PMS7003;16428;47.836;35.106;2022-12-20T13:13:00;37.50;34.25;22.75
29460;PMS7003;16428;47.836;35.106;2022-12-20T13:18:00;34.00;30.00;20.75
29460;PMS7003;16428;47.836;35.106;2022-12-20T13:21:15;31.75;28.50;19.00
29460;PMS7003;16428;47.836;35.106;2022-12-20T13:29:56;31.50;27.00;24.25
29460;PMS7003;16428;47.836;35.106;2022-12-20T13:35:27;41.50;36.00;25.00
29460;PMS7003;16428;47.836;35.106;2022-12-20T13:38:03;32.75;29.00;22.75
29460;PMS7003;16428;47.836;35.106;2022-12-20T13:40:59;28.00;26.00;21.25
29460;PMS7003;16428;47.836;35.106;2022-12-20T13:43:43;35.00;23.50;17.25
29460;PMS7003;16428;47.836;35.106;2022-12-20T13:46:17;32.50;29.75;21.00
29460;PMS7003;16428;47.836;35.106;2022-12-20T13:49:03;36.50;29.25;20.50
29460;PMS7003;16428;47.836;35.106;2022-12-20T13:51:37;27.50;21.50;15.00
29460;PMS7003;16428;47.836;35.106;2022-12-20T13:54:14;35.25;31.50;21.50
29460;PMS7003;16428;47.836;35.106;2022-12-20T13:56:53;31.00;17.75;15.25
29460;PMS7003;16428;47.836;35.106;2022-12-20T13:59:25;33.00;26.67;20.67
29460;PMS7003;16428;47.836;35.106;2022-12-20T14:02:00;36.00;27.33;18.67
29460;PMS7003;16428;47.836;35.106;2022-12-20T14:04:42;33.67;28.67;22.00
29460;PMS7003;16428;47.836;35.106;2022-12-20T14:07:14;31.67;25.00;16.33
29460;PMS7003;16428;47.836;35.106;2022-12-20T14:09:45;43.67;35.00;24.00
29460;PMS7003;16428;47.836;35.106;2022-12-20T14:12:21;36.33;33.67;21.00
29460;PMS7003;16428;47.836;35.106;2022-12-20T14:14:57;36.33;32.33;23.00
29460;PMS7003;16428;47.836;35.106;2022-12-20T14:17:28;27.00;26.00;19.00
29460;PMS7003;16428;47.836;35.106;2022-12-20T14:20:14;35.67;28.33;20.00
29460;PMS7003;16428;47.836;35.106;2022-12-20T14:22:49;34.67;28.67;20.33
29460;PMS7003;16428;47.836;35.106;2022-12-20T14:36:30;34.33;26.33;17.00
29460;PMS7003;16428;47.836;35.106;2022-12-20T14:39:00;27.33;22.67;17.67
29460;PMS7003;16428;47.836;35.106;2022-12-20T14:44:27;40.00;34.67;25.00
29460;PMS7003;16428;47.836;35.106;2022-12-20T14:47:00;46.67;38.00;24.67
29460;PMS7003;16428;47.836;35.106;2022-12-20T14:49:38;43.67;33.33;21.67
29460;PMS7003;16428;47.836;35.106;2022-12-20T15:08:32;44.33;37.67;25.33
29460;PMS7003;16428;47.836;35.106;2022-12-20T15:13:41;50.33;42.00;28.33
29460;PMS7003;16428;47.836;35.106;2022-12-20T15:16:19;45.33;40.00;27.33
29460;PMS7003;16428;47.836;35.106;2022-12-20T15:19:10;49.00;42.00;30.33
29460;PMS7003;16428;47.836;35.106;2022-12-20T15:21:40;37.00;32.67;24.00
29460;PMS7003;16428;47.836;35.106;2022-12-20T15:24:16;53.33;43.67;29.00
29460;PMS7003;16428;47.836;35.106;2022-12-20T15:26:48;40.67;35.33;27.33
29460;PMS7003;16428;47.836;35.106;2022-12-20T15:29:26;52.00;40.33;30.00
29460;PMS7003;16428;47.836;35.106;2022-12-20T15:32:03;45.67;39.00;25.67
29460;PMS7003;16428;47.836;35.106;2022-12-20T15:34:36;60.67;47.67;31.33
29460;PMS7003;16428;47.836;35.106;2022-12-20T15:37:05;51.00;45.33;31.00
29460;PMS7003;16428;47.836;35.106;2022-12-20T15:39:41;60.67;52.00;34.67
29460;PMS7003;16428;47.836;35.106;2022-12-20T15:42:16;58.33;48.00;35.00
29460;PMS7003;16428;47.836;35.106;2022-12-20T15:44:51;65.33;49.33;34.00
29460;PMS7003;16428;47.836;35.106;2022-12-20T15:47:20;64.00;51.33;35.67
29460;PMS7003;16428;47.836;35.106;2022-12-20T15:49:52;50.67;43.67;32.67
29460;PMS7003;16428;47.836;35.106;2022-12-20T15:52:22;69.33;50.00;34.67
29460;PMS7003;16428;47.836;35.106;2022-12-20T15:54:52;45.67;38.00;17.00
29460;PMS7003;16428;47.836;35.106;2022-12-20T15:57:21;65.00;50.00;35.00
29460;PMS7003;16428;47.836;35.106;2022-12-20T15:59:51;60.33;48.00;35.00
29460;PMS7003;16428;47.836;35.106;2022-12-20T16:02:30;65.67;51.33;35.00
29460;PMS7003;16428;47.836;35.106;2022-12-20T16:05:02;61.33;49.67;35.00
29460;PMS7003;16428;47.836;35.106;2022-12-20T16:07:31;63.67;48.00;33.67
29460;PMS7003;16428;47.836;35.106;2022-12-20T16:10:01;56.33;46.33;30.00
29460;PMS7003;16428;47.836;35.106;2022-12-20T16:12:32;65.00;51.00;35.00
29460;PMS7003;16428;47.836;35.106;2022-12-20T16:15:03;61.67;49.00;34.33
29460;PMS7003;16428;47.836;35.106;2022-12-20T16:17:33;65.00;52.00;35.33
29460;PMS7003;16428;47.836;35.106;2022-12-20T16:20:04;63.33;52.00;36.67
29460;PMS7003;16428;47.836;35.106;2022-12-20T16:22:35;61.67;51.00;34.67
29460;PMS7003;16428;47.836;35.106;2022-12-20T16:25:03;62.67;50.67;35.33
29460;PMS7003;16428;47.836;35.106;2022-12-20T16:27:33;70.33;51.00;34.00
29460;PMS7003;16428;47.836;35.106;2022-12-20T16:30:24;64.33;49.00;35.00
29460;PMS7003;16428;47.836;35.106;2022-12-20T18:48:14;55.00;45.00;28.00
29460;PMS7003;16428;47.836;35.106;2022-12-20T18:51:12;47.67;41.33;29.67
29460;PMS7003;16428;47.836;35.106;2022-12-20T18:53:44;58.00;44.33;30.00
29460;PMS7003;16428;47.836;35.106;2022-12-20T18:56:44;57.67;46.33;29.00
29460;PMS7003;16428;47.836;35.106;2022-12-20T18:59:41;60.00;45.67;33.00
29460;PMS7003;16428;47.836;35.106;2022-12-20T19:02:39;74.67;56.67;36.33
29460;PMS7003;16428;47.836;35.106;2022-12-20T19:05:36;63.33;51.67;36.67
29460;PMS7003;16428;47.836;35.106;2022-12-20T19:08:33;74.67;57.67;37.00
29460;PMS7003;16428;47.836;35.106;2022-12-20T19:11:32;68.67;57.33;42.33
29460;PMS7003;16428;47.836;35.106;2022-12-20T19:14:18;78.00;59.33;40.33
29460;PMS7003;16428;47.836;35.106;2022-12-20T19:17:15;79.50;61.00;35.50
29460;PMS7003;16428;47.836;35.106;2022-12-20T19:20:11;79.33;60.67;41.67
29460;PMS7003;16428;47.836;35.106;2022-12-20T19:22:46;74.67;57.00;39.00
29460;PMS7003;16428;47.836;35.106;2022-12-20T19:25:35;72.00;56.67;38.00
29460;PMS7003;16428;47.836;35.106;2022-12-20T19:28:34;38.33;35.00;10.67
29460;PMS7003;16428;47.836;35.106;2022-12-20T19:31:20;91.75;71.75;48.50
29460;PMS7003;16428;47.836;35.106;2022-12-20T19:34:15;93.25;77.50;53.25
29460;PMS7003;16428;47.836;35.106;2022-12-20T19:37:20;84.67;65.33;43.67
29460;PMS7003;16428;47.836;35.106;2022-12-20T19:40:26;76.00;60.67;39.67
29460;PMS7003;16428;47.836;35.106;2022-12-20T19:43:25;86.00;66.67;41.67
29460;PMS7003;16428;47.836;35.106;2022-12-20T19:46:21;82.00;61.33;41.33
29460;PMS7003;16428;47.836;35.106;2022-12-20T19:49:37;83.67;59.00;42.00
29460;PMS7003;16428;47.836;35.106;2022-12-20T19:52:42;74.00;58.33;40.00
29460;PMS7003;16428;47.836;35.106;2022-12-20T19:55:39;69.67;56.00;36.00
29460;PMS7003;16428;47.836;35.106;2022-12-20T20:02:19;57.67;46.00;33.00
29460;PMS7003;16428;47.836;35.106;2022-12-20T20:08:12;59.33;44.00;29.00
29460;PMS7003;16428;47.836;35.106;2022-12-20T20:10:44;36.00;36.00;25.00
29460;PMS7003;16428;47.836;35.106;2022-12-20T20:13:45;51.67;38.67;26.00
29460;PMS7003;16428;47.836;35.106;2022-12-20T20:16:58;45.00;42.00;29.00
29460;PMS7003;16428;47.836;35.106;2022-12-20T20:19:41;53.67;41.67;29.00
29460;PMS7003;16428;47.836;35.106;2022-12-20T20:22:12;51.00;40.67;28.00
29460;PMS7003;16428;47.836;35.106;2022-12-20T20:25:10;50.67;41.67;29.00
29460;PMS7003;16428;47.836;35.106;2022-12-20T20:28:00;44.67;37.33;26.33
29460;PMS7003;16428;47.836;35.106;2022-12-20T20:30:34;39.67;34.33;25.00
29460;PMS7003;16428;47.836;35.106;2022-12-20T20:33:36;42.00;38.67;26.67
29460;PMS7003;16428;47.836;35.106;2022-12-20T20:36:15;51.67;43.00;29.67
29460;PMS7003;16428;47.836;35.106;2022-12-20T20:39:00;48.00;42.00;25.00
29460;PMS7003;16428;47.836;35.106;2022-12-20T20:41:51;55.00;43.00;29.00
29460;PMS7003;16428;47.836;35.106;2022-12-20T20:45:03;45.33;38.67;28.00
29460;PMS7003;16428;47.836;35.106;2022-12-20T20:47:47;46.33;41.00;27.67
29460;PMS7003;16428;47.836;35.106;2022-12-20T20:50:35;62.00;47.67;30.00
29460;PMS7003;16428;47.836;35.106;2022-12-20T20:53:32;44.00;36.33;25.00
29460;PMS7003;16428;47.836;35.106;2022-12-20T20:56:17;49.67;36.00;25.33
29460;PMS7003;16428;47.836;35.106;2022-12-20T20:59:08;34.67;33.33;25.00
29460;PMS7003;16428;47.836;35.106;2022-12-20T21:01:45;47.67;38.33;26.00
29460;PMS7003;16428;47.836;35.106;2022-12-20T21:04:16;47.67;39.00;28.00
29460;PMS7003;16428;47.836;35.106;2022-12-20T21:07:00;44.33;37.67;28.00
29460;PMS7003;16428;47.836;35.106;2022-12-20T21:13:54;34.33;31.33;22.67
29460;PMS7003;16428;47.836;35.106;2022-12-20T21:16:28;46.33;41.67;29.67
29460;PMS7003;16428;47.836;35.106;2022-12-20T21:19:04;50.67;42.33;29.33
29460;PMS7003;16428;47.836;35.106;2022-12-20T21:21:37;44.33;38.67;28.33
29460;PMS7003;16428;47.836;35.106;2022-12-20T21:24:08;48.00;40.00;27.33
29460;PMS7003;16428;47.836;35.106;2022-12-20T21:26:40;48.67;38.00;30.00
29460;PMS7003;16428;47.836;35.106;2022-12-20T21:29:10;52.33;41.00;28.00
29460;PMS7003;16428;47.836;35.106;2022-12-20T21:31:51;39.00;36.33;24.33
29460;PMS7003;16428;47.836;35.106;2022-12-20T21:34:20;52.00;43.33;29.00
29460;PMS7003;16428;47.836;35.106;2022-12-20T21:36:52;43.00;38.00;27.33
29460;PMS7003;16428;47.836;35.106;2022-12-20T21:39:48;46.33;39.00;26.00
29460;PMS7003;16428;47.836;35.106;2022-12-20T21:42:24;48.67;39.67;27.33
29460;PMS7003;16428;47.836;35.106;2022-12-20T21:45:21;45.33;41.00;28.33
29460;PMS7003;16428;47.836;35.106;2022-12-20T21:48:21;57.00;44.00;29.00
29460;PMS7003;16428;47.836;35.106;2022-12-20T21:51:20;36.00;32.00;23.67
29460;PMS7003;16428;47.836;35.106;2022-12-20T21:54:01;52.67;41.00;28.00
29460;PMS7003;16428;47.836;35.106;2022-12-20T21:56:33;56.33;41.67;29.33
29460;PMS7003;16428;47.836;35.106;2022-12-20T21:59:09;41.67;39.00;25.67
29460;PMS7003;16428;47.836;35.106;2022-12-20T22:02:02;36.67;34.33;24.67
29460;PMS7003;16428;47.836;35.106;2022-12-20T22:04:47;43.33;38.67;23.33
29460;PMS7003;16428;47.836;35.106;2022-12-20T22:07:31;45.00;36.00;22.67
29460;PMS7003;16428;47.836;35.106;2022-12-20T22:10:29;45.00;34.67;21.00
29460;PMS7003;16428;47.836;35.106;2022-12-20T22:13:15;44.00;37.33;28.00
29460;PMS7003;16428;47.836;35.106;2022-12-20T22:16:13;40.00;38.33;27.67
29460;PMS7003;16428;47.836;35.106;2022-12-20T22:18:51;50.67;41.33;28.00
29460;PMS7003;16428;47.836;35.106;2022-12-20T22:21:27;41.00;26.67;15.33
29460;PMS7003;16428;47.836;35.106;2022-12-20T22:24:04;41.67;36.33;25.00
29460;PMS7003;16428;47.836;35.106;2022-12-20T22:26:37;35.67;33.33;24.00
29460;PMS7003;16428;47.836;35.106;2022-12-20T22:32:26;37.67;34.33;25.00
29460;PMS7003;16428;47.836;35.106;2022-12-20T22:35:18;36.33;31.67;25.00